Time;durP1;ratioP1;P1;durP2;ratioP2;P2;SDS_P1;SDS_P2;PMS_P1;PMS_P2;Temp;Humidity;BMP_temperature;BMP_pressure;BME280_temperature;BME280_humidity;BME280_pressure;Samples;Min_cycle;Max_cycle;Signal;HPM_P1;HPM_P2
2020/12/09 00:02:20;;;;;;;49.47;42.88;;;3.70;91.40;;;;;;4995445;28;20713;-78
2020/12/09 00:04:47;;;;;;;45.60;39.85;;;3.60;90.80;;;;;;4994338;28;20660;-78
2020/12/09 00:07:13;;;;;;;50.08;41.38;;;3.60;90.80;;;;;;5032388;28;20216;-78
2020/12/09 00:09:40;;;;;;;47.35;41.00;;;3.60;90.50;;;;;;5034603;28;20208;-78
2020/12/09 00:12:06;;;;;;;106.18;44.83;;;3.60;90.10;;;;;;5034673;28;20225;-78
2020/12/09 00:14:33;;;;;;;143.25;49.35;;;3.60;91.60;;;;;;5034524;28;20280;-78
2020/12/09 00:16:59;;;;;;;1999.90;310.73;;;3.60;92.00;;;;;;5017714;28;20257;-78
2020/12/09 00:19:25;;;;;;;52.03;41.85;;;3.60;97.60;;;;;;5026191;28;20193;-78
2020/12/09 00:21:52;;;;;;;330.83;74.38;;;3.60;94.90;;;;;;5034560;28;20197;-78
2020/12/09 00:24:18;;;;;;;51.40;42.38;;;3.60;96.40;;;;;;5034244;28;20212;-78
2020/12/09 00:26:45;;;;;;;51.85;42.53;;;3.70;95.10;;;;;;5019150;28;20218;-77
2020/12/09 00:29:13;;;;;;;47.63;39.63;;;3.70;93.90;;;;;;5014357;28;20198;-78
2020/12/09 00:31:39;;;;;;;49.45;42.35;;;3.70;93.50;;;;;;5014215;28;20202;-78
2020/12/09 00:34:06;;;;;;;45.92;38.90;;;3.70;91.90;;;;;;5014229;28;20205;-78
2020/12/09 00:36:32;;;;;;;44.75;39.97;;;3.70;91.60;;;;;;5013689;28;20229;-78
2020/12/09 00:38:58;;;;;;;46.42;41.42;;;3.80;91.10;;;;;;5014000;28;20701;-78
2020/12/09 00:41:27;;;;;;;567.70;100.05;;;3.80;91.30;;;;;;5014144;28;20660;-78
2020/12/09 00:43:57;;;;;;;51.15;43.95;;;3.90;91.30;;;;;;5015258;28;20194;-78
2020/12/09 00:46:24;;;;;;;54.80;42.70;;;3.80;91.20;;;;;;5016614;28;20211;-78
2020/12/09 00:48:51;;;;;;;50.92;41.95;;;3.80;90.70;;;;;;5033627;28;20579;-78
2020/12/09 00:51:19;;;;;;;46.35;40.25;;;3.80;90.20;;;;;;5033708;28;20199;-78
2020/12/09 00:53:46;;;;;;;48.45;40.97;;;3.90;89.40;;;;;;5035990;28;20193;-77
2020/12/09 00:56:13;;;;;;;49.28;42.97;;;3.80;89.30;;;;;;5029354;28;20222;-77
2020/12/09 00:58:39;;;;;;;45.35;40.45;;;3.80;90.00;;;;;;5016731;28;20190;-78
2020/12/09 01:01:08;;;;;;;51.42;41.15;;;3.70;88.50;;;;;;5017478;28;20662;-78
2020/12/09 01:03:35;;;;;;;47.53;40.05;;;3.70;89.20;;;;;;5033317;28;20663;-78
2020/12/09 01:06:03;;;;;;;50.60;42.72;;;3.70;88.20;;;;;;5032991;28;20213;-78
2020/12/09 01:08:29;;;;;;;66.28;42.45;;;3.60;88.60;;;;;;5033571;28;20197;-78
2020/12/09 01:10:56;;;;;;;48.40;42.28;;;3.60;90.20;;;;;;5030684;28;20197;-78
2020/12/09 01:13:22;;;;;;;45.78;39.65;;;3.60;89.70;;;;;;5013796;28;20202;-78
2020/12/09 01:15:49;;;;;;;45.67;40.55;;;3.60;89.80;;;;;;5013174;28;20221;-78
2020/12/09 01:18:16;;;;;;;53.10;42.17;;;3.60;89.20;;;;;;5013649;28;20235;-78
2020/12/09 01:20:43;;;;;;;51.53;40.65;;;3.50;88.80;;;;;;5013909;28;20205;-78
2020/12/09 01:23:09;;;;;;;45.10;39.55;;;3.50;89.20;;;;;;5033366;28;20289;-78
2020/12/09 01:25:36;;;;;;;49.25;41.95;;;3.40;89.40;;;;;;5032878;28;20737;-78
2020/12/09 01:28:04;;;;;;;49.53;41.58;;;3.40;89.60;;;;;;5033330;28;20279;-78
2020/12/09 01:30:31;;;;;;;48.83;41.85;;;3.50;89.30;;;;;;5033089;28;20196;-78
2020/12/09 01:32:57;;;;;;;48.78;41.83;;;3.50;89.30;;;;;;5015098;28;20205;-78
2020/12/09 01:35:25;;;;;;;49.08;42.00;;;3.50;89.30;;;;;;5013491;28;20204;-77
2020/12/09 01:37:53;;;;;;;50.28;41.00;;;3.60;89.20;;;;;;5013218;28;20233;-78
2020/12/09 01:40:19;;;;;;;53.72;41.65;;;3.50;89.50;;;;;;5024799;28;20196;-78
2020/12/09 01:42:46;;;;;;;56.00;43.20;;;3.50;89.90;;;;;;5033128;28;20203;-78
2020/12/09 01:45:12;;;;;;;48.60;42.17;;;3.50;89.90;;;;;;5033020;28;20205;-78
2020/12/09 01:47:43;;;;;;;56.70;44.03;;;3.50;89.60;;;;;;5032680;28;20588;-78
2020/12/09 01:50:11;;;;;;;49.47;41.75;;;3.50;89.30;;;;;;5031051;28;20204;-78
2020/12/09 01:52:38;;;;;;;50.85;40.88;;;3.60;89.40;;;;;;5032642;28;20276;-78
2020/12/09 01:55:04;;;;;;;50.25;42.63;;;3.60;89.40;;;;;;5032690;28;20574;-78
2020/12/09 01:57:31;;;;;;;49.75;42.72;;;3.50;89.40;;;;;;5032498;28;20225;-78
2020/12/09 01:59:57;;;;;;;55.58;41.63;;;3.60;88.90;;;;;;5024717;28;20591;-78
2020/12/09 02:02:23;;;;;;;50.50;41.42;;;3.50;89.10;;;;;;5013215;28;20225;-78
2020/12/09 02:04:51;;;;;;;54.20;44.40;;;3.60;89.30;;;;;;5013092;28;20198;-78
2020/12/09 02:07:18;;;;;;;66.07;45.20;;;3.60;88.70;;;;;;5012754;28;20225;-78
2020/12/09 02:09:56;;;;;;;52.72;42.15;;;3.60;89.20;;;;;;5013066;28;20206;-78
2020/12/09 02:12:23;;;;;;;53.85;43.08;;;3.70;88.90;;;;;;5022177;28;20202;-78
2020/12/09 02:14:49;;;;;;;346.60;70.25;;;3.50;91.20;;;;;;5032738;28;20198;-78
2020/12/09 02:17:15;;;;;;;52.80;43.15;;;3.50;90.60;;;;;;5032204;28;20225;-78
2020/12/09 02:19:42;;;;;;;51.25;42.55;;;3.50;90.90;;;;;;5032575;28;20658;-78
2020/12/09 02:22:13;;;;;;;47.22;42.03;;;3.50;91.10;;;;;;5026310;28;20193;-78
2020/12/09 02:24:39;;;;;;;53.92;43.75;;;3.50;90.90;;;;;;5012721;28;20204;-78
2020/12/09 02:27:06;;;;;;;70.93;43.28;;;3.60;90.00;;;;;;5012819;28;20214;-78
2020/12/09 02:29:33;;;;;;;53.40;43.17;;;3.60;90.70;;;;;;5030525;28;20208;-78
2020/12/09 02:31:59;;;;;;;61.28;48.00;;;3.70;90.40;;;;;;5026916;28;20201;-78
2020/12/09 02:34:25;;;;;;;48.70;42.80;;;3.90;89.20;;;;;;5016622;28;20532;-78
2020/12/09 02:36:52;;;;;;;47.35;41.90;;;3.80;88.70;;;;;;5016232;28;20599;-78
2020/12/09 02:39:30;;;;;;;49.05;40.90;;;3.70;88.90;;;;;;5016378;28;20664;-78
2020/12/09 02:41:57;;;;;;;56.22;44.45;;;3.60;89.30;;;;;;5024674;28;20189;-78
2020/12/09 02:44:23;;;;;;;52.38;43.25;;;3.60;89.60;;;;;;5036189;28;20198;-78
2020/12/09 02:46:49;;;;;;;57.42;44.92;;;3.60;89.40;;;;;;5035957;28;20214;-78
2020/12/09 02:49:16;;;;;;;55.05;43.65;;;3.50;89.70;;;;;;5035991;28;20197;-78
2020/12/09 02:51:42;;;;;;;58.97;43.30;;;3.70;89.30;;;;;;5029536;28;20194;-78
2020/12/09 02:54:09;;;;;;;56.05;40.97;;;3.80;88.80;;;;;;5016166;28;20205;-78
2020/12/09 02:56:36;;;;;;;54.80;44.05;;;3.70;89.00;;;;;;5015781;28;20232;-78
2020/12/09 02:59:02;;;;;;;53.85;44.28;;;3.70;89.00;;;;;;5016122;28;20204;-78
2020/12/09 03:01:32;;;;;;;50.97;43.80;;;3.60;89.30;;;;;;5017051;28;20209;-78
2020/12/09 03:03:59;;;;;;;48.35;41.08;;;3.50;89.80;;;;;;5020795;28;20663;-78
2020/12/09 03:06:25;;;;;;;55.95;44.38;;;3.60;90.00;;;;;;5035177;28;20227;-78
2020/12/09 03:08:51;;;;;;;49.97;42.25;;;3.60;90.00;;;;;;5035698;28;20221;-78
2020/12/09 03:11:18;;;;;;;59.65;43.90;;;3.60;90.00;;;;;;5035582;28;20198;-78
2020/12/09 03:13:45;;;;;;;50.88;41.97;;;3.70;89.80;;;;;;5033254;28;20197;-78
2020/12/09 03:16:11;;;;;;;54.42;43.35;;;3.70;90.30;;;;;;5015553;28;20226;-78
2020/12/09 03:18:38;;;;;;;53.35;43.88;;;3.60;89.70;;;;;;5015756;28;20198;-78
2020/12/09 03:21:06;;;;;;;52.20;44.25;;;3.70;89.70;;;;;;5032961;28;20204;-78
2020/12/09 03:23:33;;;;;;;51.95;41.78;;;3.70;89.70;;;;;;5035366;28;20258;-78
2020/12/09 03:26:00;;;;;;;48.22;42.40;;;3.80;89.30;;;;;;5034975;28;20629;-78
2020/12/09 03:28:26;;;;;;;55.60;45.20;;;3.70;89.20;;;;;;5035652;28;20205;-78
2020/12/09 03:30:53;;;;;;;51.65;44.92;;;3.80;89.20;;;;;;5033389;28;20193;-78
2020/12/09 03:33:20;;;;;;;49.05;41.28;;;3.70;89.20;;;;;;5034966;28;20658;-78
2020/12/09 03:35:46;;;;;;;51.65;43.28;;;3.70;89.20;;;;;;5035133;28;20575;-78
2020/12/09 03:38:12;;;;;;;50.90;44.20;;;3.70;89.20;;;;;;5035129;28;20228;-78
2020/12/09 03:40:39;;;;;;;49.40;42.67;;;3.70;89.20;;;;;;5021989;28;20198;-77
2020/12/09 03:43:05;;;;;;;54.92;45.35;;;3.60;89.90;;;;;;5015291;28;20212;-78
2020/12/09 03:45:32;;;;;;;50.50;42.55;;;3.60;90.30;;;;;;5015161;28;20216;-78
2020/12/09 03:47:59;;;;;;;52.88;44.92;;;3.70;90.20;;;;;;5015271;28;20714;-78
2020/12/09 03:50:25;;;;;;;55.75;44.90;;;3.80;89.60;;;;;;5015265;28;20194;-78
2020/12/09 03:52:52;;;;;;;60.72;43.53;;;3.70;89.10;;;;;;5015033;28;20204;-78
2020/12/09 03:55:18;;;;;;;54.60;45.30;;;3.60;90.00;;;;;;5014959;28;20208;-78
2020/12/09 03:57:44;;;;;;;51.00;44.10;;;3.60;90.30;;;;;;5037066;23;20323;-78
2020/12/09 04:00:11;;;;;;;56.78;45.00;;;3.60;90.30;;;;;;5034914;28;20197;-78
2020/12/09 04:02:37;;;;;;;54.65;44.53;;;3.70;90.30;;;;;;5034234;28;20556;-78
2020/12/09 04:05:05;;;;;;;98.03;47.10;;;3.70;90.50;;;;;;5034818;28;20219;-78
2020/12/09 04:07:31;;;;;;;61.28;47.50;;;3.70;90.50;;;;;;5034465;28;20817;-78
2020/12/09 04:09:58;;;;;;;49.55;42.65;;;3.70;90.50;;;;;;5034724;28;20749;-78
2020/12/09 04:12:24;;;;;;;66.53;46.33;;;3.80;90.60;;;;;;5033086;28;20277;-78
2020/12/09 04:14:51;;;;;;;299.27;72.88;;;3.80;90.70;;;;;;5034237;28;20189;-78
2020/12/09 04:17:17;;;;;;;57.90;46.03;;;3.80;93.50;;;;;;5034163;28;20235;-77
2020/12/09 04:19:44;;;;;;;53.30;44.22;;;3.80;92.10;;;;;;5034593;28;20380;-78
2020/12/09 04:22:11;;;;;;;177.70;54.10;;;3.70;91.70;;;;;;5028893;28;20189;-78
2020/12/09 04:24:37;;;;;;;652.95;117.10;;;3.80;92.70;;;;;;5020145;28;20190;-78
2020/12/09 04:27:04;;;;;;;59.72;44.88;;;3.80;96.20;;;;;;5014056;28;20224;-78
2020/12/09 04:29:30;;;;;;;55.58;45.65;;;3.80;94.40;;;;;;5014409;28;20659;-78
2020/12/09 04:31:56;;;;;;;56.97;45.70;;;3.80;94.10;;;;;;5020345;28;20275;-78
2020/12/09 04:34:23;;;;;;;53.92;46.63;;;3.80;93.40;;;;;;5034317;28;20654;-78
2020/12/09 04:36:50;;;;;;;260.60;66.47;;;3.80;93.50;;;;;;5033991;28;20225;-78
2020/12/09 04:39:18;;;;;;;57.88;45.70;;;3.90;95.30;;;;;;5034060;28;20197;-78
2020/12/09 04:41:44;;;;;;;52.88;42.97;;;3.90;94.50;;;;;;5015549;28;20277;-78
2020/12/09 04:44:11;;;;;;;57.17;45.15;;;4.00;95.20;;;;;;5014441;28;20204;-78
2020/12/09 04:46:42;;;;;;;57.58;45.20;;;4.00;93.60;;;;;;5014085;28;20214;-78
2020/12/09 04:49:14;;;;;;;51.95;44.85;;;4.00;93.40;;;;;;5014433;28;20204;-78
2020/12/09 04:52:25;;;;;;;52.90;43.25;;;4.00;93.10;;;;;;5031135;28;20209;-78
2020/12/09 04:55:02;;;;;;;50.97;44.30;;;3.90;92.10;;;;;;5031027;28;20206;-78
2020/12/09 04:57:43;;;;;;;53.85;43.92;;;4.00;92.00;;;;;;5033521;28;20784;-78
2020/12/09 05:00:11;;;;;;;53.72;42.80;;;3.90;93.70;;;;;;5034124;28;20219;-78
2020/12/09 05:02:43;;;;;;;112.70;48.55;;;3.90;92.00;;;;;;5033061;28;20284;-78
2020/12/09 05:05:12;;;;;;;51.50;42.70;;;3.80;92.00;;;;;;5033854;28;20204;-78
2020/12/09 05:07:41;;;;;;;52.92;44.53;;;3.90;91.80;;;;;;5033545;28;20213;-78
2020/12/09 05:10:08;;;;;;;54.38;46.35;;;3.80;91.90;;;;;;5032099;28;20200;-78
2020/12/09 05:12:42;;;;;;;50.33;44.05;;;3.80;92.20;;;;;;5035269;28;20258;-78
2020/12/09 05:15:15;;;;;;;104.65;47.08;;;3.80;92.30;;;;;;5040095;28;20197;-78
2020/12/09 05:17:54;;;;;;;129.98;46.88;;;3.90;92.30;;;;;;5026652;28;20312;-78
2020/12/09 05:20:26;;;;;;;295.15;66.28;;;3.90;93.60;;;;;;5014024;28;20202;-78
2020/12/09 05:22:56;;;;;;;598.42;113.07;;;3.90;94.80;;;;;;5014993;28;20198;-78
2020/12/09 05:25:24;;;;;;;53.95;44.60;;;4.00;94.50;;;;;;5013488;28;20194;-78
2020/12/09 05:27:51;;;;;;;50.97;44.30;;;3.90;95.10;;;;;;5013624;28;20225;-78
2020/12/09 05:30:42;;;;;;;487.48;93.75;;;3.90;96.30;;;;;;5014002;28;20294;-78
2020/12/09 05:33:10;;;;;;;52.40;41.00;;;4.00;96.50;;;;;;5023665;28;20662;-78
2020/12/09 05:35:37;;;;;;;306.90;63.42;;;4.00;97.30;;;;;;5033505;28;20308;-78
2020/12/09 05:38:08;;;;;;;49.95;42.25;;;4.00;96.20;;;;;;5033230;28;20221;-78
2020/12/09 05:40:35;;;;;;;48.40;40.67;;;4.10;95.80;;;;;;5033273;28;20224;-78
2020/12/09 05:43:01;;;;;;;53.63;42.25;;;4.10;94.80;;;;;;5024331;28;20200;-78
2020/12/09 05:45:28;;;;;;;48.78;41.70;;;4.10;94.10;;;;;;5013201;28;20284;-78
2020/12/09 05:48:11;;;;;;;44.63;39.90;;;4.00;93.40;;;;;;5013273;28;20202;-78
2020/12/09 05:50:49;;;;;;;45.80;40.90;;;4.00;94.10;;;;;;5013243;28;20216;-78
2020/12/09 05:53:16;;;;;;;820.05;116.35;;;4.00;93.70;;;;;;5023379;28;20200;-78
2020/12/09 05:55:45;;;;;;;52.78;42.63;;;4.10;93.60;;;;;;5016096;28;20711;-77
2020/12/09 05:58:35;;;;;;;46.92;40.33;;;4.00;96.00;;;;;;5013114;28;20218;-78
2020/12/09 06:01:09;;;;;;;51.45;41.75;;;3.90;95.10;;;;;;4993723;28;20208;-78
2020/12/09 06:03:36;;;;;;;47.30;42.00;;;3.90;94.70;;;;;;5013259;28;20654;-78
2020/12/09 06:06:20;;;;;;;50.72;41.05;;;3.80;94.70;;;;;;5014075;28;20228;-77
2020/12/09 06:08:49;;;;;;;170.50;52.42;;;3.90;94.40;;;;;;5021268;28;20265;-78
2020/12/09 06:11:18;;;;;;;44.75;39.90;;;3.90;94.70;;;;;;5014674;28;20284;-78
2020/12/09 06:13:45;;;;;;;459.35;82.07;;;3.90;94.50;;;;;;5012981;28;20208;-78
2020/12/09 06:16:12;;;;;;;49.55;42.47;;;4.00;97.00;;;;;;5014620;28;20224;-78
2020/12/09 06:18:42;;;;;;;46.25;39.95;;;4.00;96.60;;;;;;5032546;28;20221;-78
2020/12/09 06:21:08;;;;;;;46.00;40.42;;;3.90;95.20;;;;;;5030956;28;20229;-78
2020/12/09 06:23:35;;;;;;;43.70;39.08;;;3.90;96.10;;;;;;5015274;28;20194;-78
2020/12/09 06:26:03;;;;;;;149.02;46.40;;;3.80;95.20;;;;;;5012675;28;20218;-78
2020/12/09 06:28:32;;;;;;;42.17;37.53;;;3.90;95.00;;;;;;5032518;28;20204;-78
2020/12/09 06:31:08;;;;;;;43.95;38.60;;;3.90;96.60;;;;;;5032250;28;20201;-78
2020/12/09 06:33:37;;;;;;;39.88;35.65;;;3.90;95.50;;;;;;5030367;28;20189;-78
2020/12/09 06:36:15;;;;;;;42.03;37.53;;;4.00;95.20;;;;;;5032139;28;20217;-78
2020/12/09 06:38:42;;;;;;;43.45;38.03;;;4.00;94.40;;;;;;5032588;28;20693;-78
2020/12/09 06:41:12;;;;;;;43.67;39.22;;;4.00;92.80;;;;;;5032447;28;20193;-78
2020/12/09 06:43:55;;;;;;;42.58;38.03;;;4.00;93.10;;;;;;5017416;28;20592;-78
2020/12/09 06:46:38;;;;;;;338.00;67.97;;;3.90;93.60;;;;;;5012164;28;20222;-78
2020/12/09 06:49:05;;;;;;;1785.85;272.73;;;3.80;94.70;;;;;;5012615;28;20194;-78
2020/12/09 06:51:40;;;;;;;43.33;38.63;;;3.90;99.80;;;;;;5027895;28;20196;-78
2020/12/09 06:54:14;;;;;;;302.85;65.45;;;3.90;97.20;;;;;;5032284;28;20236;-78
2020/12/09 06:56:41;;;;;;;43.30;36.88;;;4.00;96.20;;;;;;5031696;28;20259;-78
2020/12/09 06:59:28;;;;;;;44.33;38.42;;;3.90;95.40;;;;;;5017506;28;20198;-78
2020/12/09 07:02:02;;;;;;;43.08;38.47;;;3.90;95.40;;;;;;5012332;28;20205;-78
2020/12/09 07:05:12;;;;;;;874.38;127.18;;;3.90;95.10;;;;;;5012332;28;20200;-78
2020/12/09 07:07:40;;;;;;;43.55;38.85;;;3.90;95.70;;;;;;5012175;28;20245;-78
2020/12/09 07:10:23;;;;;;;1999.90;472.20;;;3.90;95.50;;;;;;5012473;28;20202;-78
2020/12/09 07:12:59;;;;;;;45.33;38.63;;;4.00;97.20;;;;;;5012850;28;20236;-78
2020/12/09 07:15:26;;;;;;;45.22;39.15;;;4.00;98.50;;;;;;5034001;28;20197;-78
2020/12/09 07:17:53;;;;;;;44.15;37.92;;;4.00;97.10;;;;;;5035455;28;20227;-78
2020/12/09 07:20:20;;;;;;;116.82;41.88;;;4.00;98.10;;;;;;5035557;28;20201;-78
2020/12/09 07:22:46;;;;;;;44.33;38.28;;;4.00;96.60;;;;;;5035810;28;20198;-78
2020/12/09 07:25:12;;;;;;;42.25;38.05;;;4.00;96.40;;;;;;5025280;28;20732;-78
2020/12/09 07:27:39;;;;;;;43.78;39.17;;;4.00;95.90;;;;;;5016409;28;20324;-78
2020/12/09 07:30:07;;;;;;;42.67;38.15;;;4.10;95.20;;;;;;5015572;28;20677;-78
2020/12/09 07:32:35;;;;;;;42.53;37.90;;;4.00;94.60;;;;;;5015255;28;20694;-78
2020/12/09 07:35:04;;;;;;;42.67;38.20;;;4.00;94.30;;;;;;5015775;28;20269;-78
2020/12/09 07:37:33;;;;;;;43.67;39.33;;;4.00;94.60;;;;;;5015053;28;20610;-78
2020/12/09 07:40:09;;;;;;;44.33;39.53;;;4.00;95.30;;;;;;5019521;28;20202;-78
2020/12/09 07:42:36;;;;;;;535.72;92.15;;;4.10;94.30;;;;;;5014766;28;20205;-78
2020/12/09 07:45:03;;;;;;;45.72;40.72;;;4.10;94.90;;;;;;5015254;28;20193;-78
2020/12/09 07:47:30;;;;;;;80.97;41.03;;;4.00;94.80;;;;;;5015133;28;20214;-78
2020/12/09 07:50:03;;;;;;;44.72;39.65;;;3.90;95.50;;;;;;5019182;28;20279;-78
2020/12/09 07:52:31;;;;;;;45.05;40.33;;;3.90;94.90;;;;;;5021602;28;20201;-78
2020/12/09 07:54:58;;;;;;;44.85;40.03;;;3.90;94.50;;;;;;5015103;28;20202;-78
2020/12/09 07:57:30;;;;;;;45.03;39.30;;;4.00;94.30;;;;;;5014732;28;20230;-78
2020/12/09 07:59:57;;;;;;;41.75;37.17;;;4.10;93.60;;;;;;5015039;28;20647;-78
2020/12/09 08:02:25;;;;;;;43.20;38.60;;;4.10;93.00;;;;;;5026063;28;20190;-78
2020/12/09 08:05:12;;;;;;;44.50;39.83;;;4.00;93.00;;;;;;5015006;28;20207;-78
2020/12/09 08:08:00;;;;;;;48.13;40.47;;;4.00;93.10;;;;;;5024157;28;20560;-78
2020/12/09 08:10:31;;;;;;;47.95;42.80;;;4.10;92.90;;;;;;5031096;28;20204;-78
2020/12/09 08:13:20;;;;;;;44.60;39.72;;;4.10;92.30;;;;;;5014822;28;20225;-78
2020/12/09 08:15:59;;;;;;;45.65;40.72;;;4.10;92.60;;;;;;5032465;28;20193;-78
2020/12/09 08:18:26;;;;;;;43.30;38.53;;;4.20;92.20;;;;;;5033531;28;20299;-78
2020/12/09 08:20:54;;;;;;;46.90;41.63;;;4.10;91.90;;;;;;5034162;28;20193;-78
2020/12/09 08:23:21;;;;;;;45.72;40.75;;;4.20;92.00;;;;;;5038759;28;20203;-78
2020/12/09 08:25:49;;;;;;;48.40;41.83;;;4.10;92.20;;;;;;5018591;28;20285;-78
2020/12/09 08:28:19;;;;;;;47.50;41.92;;;4.20;92.50;;;;;;5015406;28;20659;-78
2020/12/09 08:30:46;;;;;;;47.20;41.45;;;4.10;92.20;;;;;;5014458;28;20225;-78
2020/12/09 08:33:21;;;;;;;42.63;38.22;;;4.10;92.60;;;;;;5026222;28;20201;-78
2020/12/09 08:35:57;;;;;;;45.38;40.67;;;4.20;92.30;;;;;;5034190;28;20207;-78
2020/12/09 08:38:30;;;;;;;45.67;40.97;;;4.20;92.20;;;;;;5034203;28;20219;-78
2020/12/09 08:40:58;;;;;;;43.58;39.08;;;4.20;92.00;;;;;;5016279;28;20643;-78
2020/12/09 08:43:26;;;;;;;45.90;41.00;;;4.20;91.20;;;;;;5019825;28;20185;-78
2020/12/09 08:45:53;;;;;;;44.50;39.92;;;4.30;91.00;;;;;;5030463;28;20220;-78
2020/12/09 08:48:19;;;;;;;46.35;41.35;;;4.20;90.70;;;;;;5014272;28;20194;-78
2020/12/09 08:50:46;;;;;;;46.65;41.80;;;4.20;90.70;;;;;;5014288;28;20280;-78
2020/12/09 08:53:14;;;;;;;45.20;40.63;;;4.20;90.60;;;;;;5014469;28;20206;-78
2020/12/09 08:55:42;;;;;;;43.90;39.38;;;4.20;90.40;;;;;;5016558;28;20187;-78
2020/12/09 08:58:09;;;;;;;43.75;39.10;;;4.10;90.40;;;;;;5019226;28;20210;-78
2020/12/09 09:00:36;;;;;;;46.72;41.70;;;4.20;90.70;;;;;;5016030;28;20201;-78
2020/12/09 09:03:03;;;;;;;43.65;39.22;;;4.20;90.80;;;;;;5022637;28;20195;-78
2020/12/09 09:05:30;;;;;;;46.88;40.95;;;4.30;90.90;;;;;;5024815;28;20193;-78
2020/12/09 09:07:56;;;;;;;44.67;39.75;;;4.30;90.90;;;;;;5033558;28;20194;-78
2020/12/09 09:10:23;;;;;;;45.30;40.50;;;4.40;90.90;;;;;;5017533;28;20269;-78
2020/12/09 09:12:50;;;;;;;45.13;40.53;;;4.40;90.80;;;;;;5013978;28;20202;-78
2020/12/09 09:15:17;;;;;;;45.45;40.72;;;4.30;90.70;;;;;;5015798;28;20555;-78
2020/12/09 09:17:43;;;;;;;47.83;42.58;;;4.40;90.80;;;;;;5021452;28;20213;-78
2020/12/09 09:20:09;;;;;;;46.92;42.10;;;4.40;89.90;;;;;;5032235;28;20208;-78
2020/12/09 09:22:36;;;;;;;46.42;41.60;;;4.50;89.20;;;;;;5022290;28;20203;-78
2020/12/09 09:25:03;;;;;;;48.47;43.58;;;4.40;89.30;;;;;;5025048;28;20605;-78
2020/12/09 09:27:30;;;;;;;49.08;42.53;;;4.20;89.30;;;;;;5015073;28;20686;-78
2020/12/09 09:29:58;;;;;;;47.22;42.13;;;4.20;89.90;;;;;;5033083;28;20193;-78
2020/12/09 09:32:25;;;;;;;49.45;41.35;;;4.20;90.40;;;;;;5033136;28;20206;-78
2020/12/09 09:34:52;;;;;;;47.58;41.65;;;4.20;89.50;;;;;;5030964;28;20197;-78
2020/12/09 09:37:21;;;;;;;49.65;43.70;;;4.10;89.50;;;;;;5013053;28;20221;-78
2020/12/09 09:39:48;;;;;;;50.42;44.92;;;3.90;90.60;;;;;;5026435;28;20528;-78
2020/12/09 09:42:14;;;;;;;50.30;43.30;;;3.90;91.40;;;;;;5029827;28;20193;-78
2020/12/09 09:44:41;;;;;;;47.97;42.88;;;3.90;91.30;;;;;;5025197;28;20198;-78
2020/12/09 09:47:07;;;;;;;56.83;45.85;;;3.90;91.60;;;;;;5013395;28;20214;-78
2020/12/09 09:49:34;;;;;;;48.63;42.97;;;4.00;91.50;;;;;;5014589;28;20202;-78
2020/12/09 09:52:00;;;;;;;63.22;44.70;;;4.00;91.30;;;;;;5026086;28;20199;-78
2020/12/09 09:54:27;;;;;;;53.17;45.67;;;4.00;91.60;;;;;;5030246;28;20196;-78
2020/12/09 09:56:53;;;;;;;48.28;42.80;;;4.10;91.10;;;;;;5015769;28;20706;-78
2020/12/09 09:59:19;;;;;;;50.83;44.38;;;4.10;91.10;;;;;;5012990;28;20190;-78
2020/12/09 10:01:47;;;;;;;49.13;43.83;;;4.10;91.40;;;;;;5018143;28;20196;-78
2020/12/09 10:04:13;;;;;;;50.20;44.83;;;4.00;91.40;;;;;;5031063;28;20602;-78
2020/12/09 10:06:39;;;;;;;53.53;43.85;;;4.00;91.80;;;;;;5031871;28;20303;-78
2020/12/09 10:09:07;;;;;;;52.63;41.97;;;4.00;91.80;;;;;;5032769;28;20197;-78
2020/12/09 10:11:36;;;;;;;52.28;44.25;;;4.10;91.50;;;;;;5013070;28;20205;-78
2020/12/09 10:14:03;;;;;;;51.90;44.08;;;4.10;91.40;;;;;;5012726;28;20615;-78
2020/12/09 10:16:29;;;;;;;50.10;43.40;;;4.00;92.00;;;;;;5012662;28;20225;-78
2020/12/09 10:18:56;;;;;;;51.38;44.10;;;3.90;92.00;;;;;;5020685;28;20339;-78
2020/12/09 10:21:24;;;;;;;54.78;45.20;;;3.90;92.20;;;;;;4993216;28;20205;-78
2020/12/09 10:23:51;;;;;;;54.17;45.15;;;4.00;92.60;;;;;;4993271;28;20203;-78
2020/12/09 10:26:18;;;;;;;49.47;43.83;;;4.10;92.30;;;;;;4992852;28;20218;-78
2020/12/09 10:28:45;;;;;;;54.00;45.97;;;4.10;91.80;;;;;;5008495;28;20288;-78
2020/12/09 10:31:12;;;;;;;54.45;43.05;;;4.00;91.90;;;;;;5016474;28;20213;-78
2020/12/09 10:33:38;;;;;;;51.30;42.60;;;4.00;92.00;;;;;;5013812;28;20198;-78
2020/12/09 10:36:05;;;;;;;56.35;47.13;;;4.10;92.00;;;;;;5022496;28;20223;-78
2020/12/09 10:38:32;;;;;;;51.15;44.55;;;4.10;92.10;;;;;;5032453;28;20221;-78
2020/12/09 10:40:59;;;;;;;50.97;43.30;;;4.20;92.00;;;;;;5032072;28;20204;-78
2020/12/09 10:43:25;;;;;;;51.45;45.88;;;4.20;91.00;;;;;;5032304;28;20201;-78
2020/12/09 10:45:52;;;;;;;48.38;42.00;;;4.00;92.20;;;;;;5014400;28;20309;-78
2020/12/09 10:48:18;;;;;;;56.35;43.78;;;4.00;92.10;;;;;;5023855;28;20191;-78
2020/12/09 10:50:45;;;;;;;52.38;43.80;;;4.00;92.30;;;;;;5036024;28;20201;-78
2020/12/09 10:53:12;;;;;;;51.95;43.33;;;4.10;92.30;;;;;;5017247;28;20201;-78
2020/12/09 10:55:38;;;;;;;51.17;45.63;;;4.10;92.20;;;;;;5016007;28;20198;-77
2020/12/09 10:58:05;;;;;;;51.33;44.13;;;4.10;92.10;;;;;;5017033;28;20218;-78
2020/12/09 11:00:32;;;;;;;49.97;44.50;;;4.00;92.20;;;;;;5016103;28;20216;-78
2020/12/09 11:02:58;;;;;;;51.22;43.45;;;3.90;92.60;;;;;;5018850;28;20189;-78
2020/12/09 11:05:25;;;;;;;48.70;43.40;;;4.00;92.90;;;;;;5035795;28;20617;-78
2020/12/09 11:07:51;;;;;;;50.50;41.30;;;4.20;91.90;;;;;;5034895;28;20213;-78
2020/12/09 11:10:18;;;;;;;56.33;43.65;;;4.30;91.40;;;;;;5035697;28;20205;-78
2020/12/09 11:12:44;;;;;;;47.63;41.67;;;4.30;91.00;;;;;;5035707;28;20197;-78
2020/12/09 11:15:11;;;;;;;49.35;40.63;;;4.20;90.80;;;;;;5035861;28;20661;-78
2020/12/09 11:17:38;;;;;;;49.50;41.45;;;4.20;91.40;;;;;;5040015;28;20239;-78
2020/12/09 11:20:05;;;;;;;53.53;43.65;;;4.30;91.40;;;;;;5035601;28;20219;-78
2020/12/09 11:22:31;;;;;;;50.13;44.53;;;4.30;91.30;;;;;;5035602;28;20204;-78
2020/12/09 11:24:58;;;;;;;55.47;43.92;;;4.20;92.10;;;;;;5035430;28;20617;-78
2020/12/09 11:27:25;;;;;;;47.42;42.25;;;4.30;91.40;;;;;;5019806;28;20213;-78
2020/12/09 11:29:52;;;;;;;49.85;42.95;;;4.20;91.60;;;;;;5021273;28;20190;-78
2020/12/09 11:32:19;;;;;;;53.10;43.35;;;4.10;92.30;;;;;;5021495;28;20287;-78
2020/12/09 11:34:45;;;;;;;51.50;43.15;;;4.30;93.00;;;;;;5039811;28;20208;-78
2020/12/09 11:37:11;;;;;;;54.15;43.85;;;4.40;91.50;;;;;;5037595;28;20217;-78
2020/12/09 11:39:38;;;;;;;56.15;44.80;;;4.40;90.90;;;;;;5020687;28;20193;-78
2020/12/09 11:42:04;;;;;;;50.63;43.08;;;4.30;91.70;;;;;;5028643;28;20580;-77
2020/12/09 11:44:31;;;;;;;52.33;43.28;;;4.30;91.60;;;;;;5032561;28;20236;-77
2020/12/09 11:47:00;;;;;;;54.78;45.60;;;4.30;91.60;;;;;;5034874;28;20355;-78
2020/12/09 11:49:26;;;;;;;52.13;43.30;;;4.30;91.80;;;;;;5035022;28;20722;-78
2020/12/09 11:51:53;;;;;;;51.50;43.72;;;4.40;91.90;;;;;;5023974;28;20541;-78
2020/12/09 11:54:19;;;;;;;46.38;41.35;;;4.20;91.50;;;;;;5015101;28;20206;-78
2020/12/09 11:56:45;;;;;;;51.38;44.22;;;4.30;91.40;;;;;;5014849;28;20236;-78
2020/12/09 11:59:12;;;;;;;50.42;42.53;;;4.10;91.30;;;;;;5030950;28;20213;-78
2020/12/09 12:01:39;;;;;;;56.95;44.75;;;4.10;91.70;;;;;;5019200;28;20663;-78
2020/12/09 12:04:05;;;;;;;53.90;44.05;;;4.10;91.80;;;;;;5023833;28;20205;-77
2020/12/09 12:06:32;;;;;;;57.25;44.50;;;4.10;91.90;;;;;;5029908;23;20257;-78
2020/12/09 12:08:58;;;;;;;49.45;43.70;;;4.00;91.70;;;;;;5014601;28;20198;-78
2020/12/09 12:11:26;;;;;;;48.78;42.92;;;3.90;92.30;;;;;;4995177;28;20682;-78
2020/12/09 12:13:53;;;;;;;55.22;44.33;;;3.90;92.40;;;;;;5002131;28;20194;-78
2020/12/09 12:16:21;;;;;;;52.15;43.70;;;3.90;93.00;;;;;;5014705;28;20309;-78
2020/12/09 12:18:49;;;;;;;54.38;44.05;;;4.00;92.30;;;;;;5014327;28;20220;-78
2020/12/09 12:21:16;;;;;;;50.70;41.25;;;4.10;92.10;;;;;;5014644;28;20228;-78
2020/12/09 12:23:43;;;;;;;49.42;41.28;;;4.20;91.00;;;;;;5014339;28;20201;-78
2020/12/09 12:26:14;;;;;;;51.38;41.15;;;4.10;90.90;;;;;;5013806;28;20209;-78
2020/12/09 12:28:40;;;;;;;54.92;42.95;;;4.10;91.60;;;;;;5014085;28;20647;-78
2020/12/09 12:31:10;;;;;;;48.33;40.35;;;4.00;91.50;;;;;;5013850;28;20200;-78
2020/12/09 12:33:36;;;;;;;55.75;42.90;;;3.90;91.70;;;;;;5014044;28;20643;-78
2020/12/09 12:36:04;;;;;;;58.00;45.25;;;3.80;92.20;;;;;;5013834;28;20214;-78
2020/12/09 12:38:30;;;;;;;50.75;41.38;;;3.80;92.40;;;;;;5014292;28;20224;-77
2020/12/09 12:40:57;;;;;;;54.97;43.88;;;3.80;92.50;;;;;;5013971;28;20205;-78
2020/12/09 12:43:23;;;;;;;48.63;40.20;;;3.90;92.20;;;;;;5014142;28;20224;-78